sensor_id;sensor_type;location;lat;lon;timestamp;pressure;altitude;pressure_sealevel;temperature;humidity
5780;BME280;2916;49.798;10.022;2023-04-23T00:01:59;147648.53;;;13.66;76.69
5780;BME280;2916;49.798;10.022;2023-04-23T00:04:29;147665.94;;;13.73;77.59
5780;BME280;2916;49.798;10.022;2023-04-23T00:06:59;147664.69;;;13.73;77.22
5780;BME280;2916;49.798;10.022;2023-04-23T00:09:30;147618.69;;;13.54;76.82
5780;BME280;2916;49.798;10.022;2023-04-23T00:11:58;147678.38;;;13.79;76.96
5780;BME280;2916;49.798;10.022;2023-04-23T00:14:28;147675.88;;;13.78;76.53
5780;BME280;2916;49.798;10.022;2023-04-23T00:16:56;147668.41;;;13.74;76.89
5780;BME280;2916;49.798;10.022;2023-04-23T00:19:24;147659.69;;;13.71;77.19
5780;BME280;2916;49.798;10.022;2023-04-23T00:21:51;147652.28;;;13.68;77.99
5780;BME280;2916;49.798;10.022;2023-04-23T00:24:19;147603.78;;;13.48;77.96
5780;BME280;2916;49.798;10.022;2023-04-23T00:26:47;147549.06;;;13.25;77.52
5780;BME280;2916;49.798;10.022;2023-04-23T00:29:14;147623.69;;;13.56;78.46
5780;BME280;2916;49.798;10.022;2023-04-23T00:31:42;147614.97;;;13.53;77.82
5780;BME280;2916;49.798;10.022;2023-04-23T00:34:09;147557.78;;;13.29;78.01
5780;BME280;2916;49.798;10.022;2023-04-23T00:36:36;147613.72;;;13.52;78.21
5780;BME280;2916;49.798;10.022;2023-04-23T00:39:03;147596.31;;;13.45;77.85
5780;BME280;2916;49.798;10.022;2023-04-23T00:41:30;147622.41;;;13.56;78.02
5780;BME280;2916;49.798;10.022;2023-04-23T00:43:58;147601.25;;;13.47;79.20
5780;BME280;2916;49.798;10.022;2023-04-23T00:46:25;147481.88;;;12.98;80.00
5780;BME280;2916;49.798;10.022;2023-04-23T00:48:54;147464.47;;;12.91;80.79
5780;BME280;2916;49.798;10.022;2023-04-23T00:51:22;147560.25;;;13.30;80.93
5780;BME280;2916;49.798;10.022;2023-04-23T00:53:49;147566.47;;;13.33;80.95
5780;BME280;2916;49.798;10.022;2023-04-23T00:56:17;147541.53;;;13.22;81.44
5780;BME280;2916;49.798;10.022;2023-04-23T00:58:44;147554.00;;;13.27;81.40
5780;BME280;2916;49.798;10.022;2023-04-23T01:01:12;147545.31;;;13.24;81.69
5780;BME280;2916;49.798;10.022;2023-04-23T01:03:41;147526.59;;;13.16;82.04
5780;BME280;2916;49.798;10.022;2023-04-23T01:06:10;147531.59;;;13.18;82.12
5780;BME280;2916;49.798;10.022;2023-04-23T01:08:39;147540.31;;;13.22;82.31
5780;BME280;2916;49.798;10.022;2023-04-23T01:11:08;147208.50;;;11.86;82.47
5780;BME280;2916;49.798;10.022;2023-04-23T01:13:35;147536.59;;;13.20;83.29
5780;BME280;2916;49.798;10.022;2023-04-23T01:16:02;147529.13;;;13.17;83.15
5780;BME280;2916;49.798;10.022;2023-04-23T01:18:29;147501.78;;;13.06;83.74
5780;BME280;2916;49.798;10.022;2023-04-23T01:20:56;147516.66;;;13.12;83.61
5780;BME280;2916;49.798;10.022;2023-04-23T01:23:26;147486.84;;;13.00;84.45
5780;BME280;2916;49.798;10.022;2023-04-23T01:25:53;147539.06;;;13.21;84.95
5780;BME280;2916;49.798;10.022;2023-04-23T01:28:21;147510.47;;;13.10;85.52
5780;BME280;2916;49.798;10.022;2023-04-23T01:30:48;147509.25;;;13.09;85.67
5780;BME280;2916;49.798;10.022;2023-04-23T01:33:17;147501.78;;;13.06;86.09
5780;BME280;2916;49.798;10.022;2023-04-23T01:35:45;147422.25;;;12.73;86.46
5780;BME280;2916;49.798;10.022;2023-04-23T01:38:16;147501.78;;;13.06;86.17
5780;BME280;2916;49.798;10.022;2023-04-23T01:40:45;147506.72;;;13.08;86.74
5780;BME280;2916;49.798;10.022;2023-04-23T01:43:12;147447.06;;;12.84;86.91
5780;BME280;2916;49.798;10.022;2023-04-23T01:45:40;147397.38;;;12.63;87.34
5780;BME280;2916;49.798;10.022;2023-04-23T01:48:07;147498.00;;;13.05;87.28
5780;BME280;2916;49.798;10.022;2023-04-23T01:50:35;147462.00;;;12.90;87.66
5780;BME280;2916;49.798;10.022;2023-04-23T01:53:02;147474.41;;;12.95;87.85
5780;BME280;2916;49.798;10.022;2023-04-23T01:55:30;147384.94;;;12.58;89.34
5780;BME280;2916;49.798;10.022;2023-04-23T01:57:59;147335.22;;;12.38;88.85
5780;BME280;2916;49.798;10.022;2023-04-23T02:00:26;147471.94;;;12.94;90.41
5780;BME280;2916;49.798;10.022;2023-04-23T02:02:54;147454.53;;;12.87;89.86
5780;BME280;2916;49.798;10.022;2023-04-23T02:05:21;147252.00;;;12.03;91.75
5780;BME280;2916;49.798;10.022;2023-04-23T02:07:50;147434.66;;;12.78;92.21
5780;BME280;2916;49.798;10.022;2023-04-23T02:10:18;147373.72;;;12.53;93.58
5780;BME280;2916;49.798;10.022;2023-04-23T02:12:47;147325.28;;;12.34;93.42
5780;BME280;2916;49.798;10.022;2023-04-23T02:15:16;147325.28;;;12.34;93.43
5780;BME280;2916;49.798;10.022;2023-04-23T02:17:44;147343.91;;;12.41;94.12
5780;BME280;2916;49.798;10.022;2023-04-23T02:20:11;147429.66;;;12.76;93.69
5780;BME280;2916;49.798;10.022;2023-04-23T02:22:40;147430.91;;;12.77;93.60
5780;BME280;2916;49.798;10.022;2023-04-23T02:25:09;147342.69;;;12.41;94.51
5780;BME280;2916;49.798;10.022;2023-04-23T02:27:36;147351.38;;;12.44;95.15
5780;BME280;2916;49.798;10.022;2023-04-23T02:30:05;147403.59;;;12.66;95.40
5780;BME280;2916;49.798;10.022;2023-04-23T02:32:35;147387.44;;;12.59;95.66
5780;BME280;2916;49.798;10.022;2023-04-23T02:35:04;147327.78;;;12.35;96.23
5780;BME280;2916;49.798;10.022;2023-04-23T02:37:33;147250.78;;;12.03;96.33
5780;BME280;2916;49.798;10.022;2023-04-23T02:40:00;147300.44;;;12.23;96.80
5780;BME280;2916;49.798;10.022;2023-04-23T02:42:28;147338.97;;;12.39;97.16
5780;BME280;2916;49.798;10.022;2023-04-23T02:44:55;147337.72;;;12.39;97.90
5780;BME280;2916;49.798;10.022;2023-04-23T02:47:22;147315.34;;;12.29;98.75
5780;BME280;2916;49.798;10.022;2023-04-23T02:49:52;147333.97;;;12.37;98.43
5780;BME280;2916;49.798;10.022;2023-04-23T02:52:19;147147.63;;;11.61;100.00
5780;BME280;2916;49.798;10.022;2023-04-23T02:54:46;147319.09;;;12.31;100.00
5780;BME280;2916;49.798;10.022;2023-04-23T02:57:14;147320.31;;;12.32;99.87
5780;BME280;2916;49.798;10.022;2023-04-23T02:59:41;147260.72;;;12.07;100.00
5780;BME280;2916;49.798;10.022;2023-04-23T03:02:08;147304.16;;;12.25;100.00
5780;BME280;2916;49.798;10.022;2023-04-23T03:04:36;147012.31;;;11.05;99.47
5780;BME280;2916;49.798;10.022;2023-04-23T03:07:04;147225.91;;;11.93;99.27
5780;BME280;2916;49.798;10.022;2023-04-23T03:09:31;147157.56;;;11.65;100.00
5780;BME280;2916;49.798;10.022;2023-04-23T03:11:58;147210.97;;;11.87;100.00
5780;BME280;2916;49.798;10.022;2023-04-23T03:14:27;147217.22;;;11.89;100.00
5780;BME280;2916;49.798;10.022;2023-04-23T03:16:54;147086.75;;;11.36;100.00
5780;BME280;2916;49.798;10.022;2023-04-23T03:19:21;147223.44;;;11.92;100.00
5780;BME280;2916;49.798;10.022;2023-04-23T03:21:48;147169.97;;;11.70;100.00
5780;BME280;2916;49.798;10.022;2023-04-23T03:24:17;147222.19;;;11.91;100.00
5780;BME280;2916;49.798;10.022;2023-04-23T03:26:44;147228.38;;;11.94;100.00
5780;BME280;2916;49.798;10.022;2023-04-23T03:29:11;147027.16;;;11.11;100.00
5780;BME280;2916;49.798;10.022;2023-04-23T03:31:38;147090.50;;;11.37;100.00
5780;BME280;2916;49.798;10.022;2023-04-23T03:34:05;147206.03;;;11.85;100.00
5780;BME280;2916;49.798;10.022;2023-04-23T03:36:33;147204.81;;;11.84;100.00
5780;BME280;2916;49.798;10.022;2023-04-23T03:39:00;147196.06;;;11.80;100.00
5780;BME280;2916;49.798;10.022;2023-04-23T03:41:28;146873.28;;;10.48;100.00
5780;BME280;2916;49.798;10.022;2023-04-23T03:43:56;147112.84;;;11.46;100.00
5780;BME280;2916;49.798;10.022;2023-04-23T03:46:23;147187.34;;;11.77;100.00
5780;BME280;2916;49.798;10.022;2023-04-23T03:48:50;147162.50;;;11.67;100.00
5780;BME280;2916;49.798;10.022;2023-04-23T03:51:17;147193.59;;;11.79;100.00
5780;BME280;2916;49.798;10.022;2023-04-23T03:53:45;147177.44;;;11.73;100.00
5780;BME280;2916;49.798;10.022;2023-04-23T03:56:12;147007.31;;;11.03;100.00
5780;BME280;2916;49.798;10.022;2023-04-23T03:58:40;147163.78;;;11.67;100.00
5780;BME280;2916;49.798;10.022;2023-04-23T04:01:07;147186.13;;;11.76;100.00
5780;BME280;2916;49.798;10.022;2023-04-23T04:03:35;147201.00;;;11.83;100.00
5780;BME280;2916;49.798;10.022;2023-04-23T04:06:02;147137.69;;;11.57;100.00
5780;BME280;2916;49.798;10.022;2023-04-23T04:08:29;147119.06;;;11.49;100.00
5780;BME280;2916;49.798;10.022;2023-04-23T04:10:56;147172.44;;;11.71;100.00
5780;BME280;2916;49.798;10.022;2023-04-23T04:13:23;147203.56;;;11.84;100.00
5780;BME280;2916;49.798;10.022;2023-04-23T04:15:52;147204.81;;;11.84;100.00
5780;BME280;2916;49.798;10.022;2023-04-23T04:18:19;147206.03;;;11.85;100.00
5780;BME280;2916;49.798;10.022;2023-04-23T04:20:46;147206.03;;;11.85;100.00
5780;BME280;2916;49.798;10.022;2023-04-23T04:23:13;147178.66;;;11.73;100.00
5780;BME280;2916;49.798;10.022;2023-04-23T04:25:41;147210.97;;;11.87;100.00
5780;BME280;2916;49.798;10.022;2023-04-23T04:28:08;147178.66;;;11.73;100.00
5780;BME280;2916;49.798;10.022;2023-04-23T04:30:36;147191.06;;;11.78;100.00
5780;BME280;2916;49.798;10.022;2023-04-23T04:33:05;147165.03;;;11.68;100.00
5780;BME280;2916;49.798;10.022;2023-04-23T04:35:33;147061.94;;;11.25;100.00
5780;BME280;2916;49.798;10.022;2023-04-23T04:38:00;146925.41;;;10.69;100.00
5780;BME280;2916;49.798;10.022;2023-04-23T04:40:28;147223.44;;;11.92;100.00
5780;BME280;2916;49.798;10.022;2023-04-23T04:42:56;147223.44;;;11.92;100.00
5780;BME280;2916;49.798;10.022;2023-04-23T04:45:24;147239.56;;;11.98;100.00
5780;BME280;2916;49.798;10.022;2023-04-23T04:47:51;147249.53;;;12.02;100.00
5780;BME280;2916;49.798;10.022;2023-04-23T04:50:21;147243.31;;;12.00;100.00
5780;BME280;2916;49.798;10.022;2023-04-23T04:52:49;147233.38;;;11.96;100.00
5780;BME280;2916;49.798;10.022;2023-04-23T04:55:16;147249.53;;;12.02;100.00
5780;BME280;2916;49.798;10.022;2023-04-23T04:57:43;147250.78;;;12.03;100.00
5780;BME280;2916;49.798;10.022;2023-04-23T05:00:22;147235.84;;;11.97;100.00
5780;BME280;2916;49.798;10.022;2023-04-23T05:02:52;147260.72;;;12.07;100.00
5780;BME280;2916;49.798;10.022;2023-04-23T05:05:23;147167.50;;;11.69;99.60
5780;BME280;2916;49.798;10.022;2023-04-23T05:07:51;147240.84;;;11.99;99.13
5780;BME280;2916;49.798;10.022;2023-04-23T05:10:19;147265.66;;;12.09;99.28
5780;BME280;2916;49.798;10.022;2023-04-23T05:12:47;147233.38;;;11.96;99.47
5780;BME280;2916;49.798;10.022;2023-04-23T05:15:16;147265.66;;;12.09;99.69
5780;BME280;2916;49.798;10.022;2023-04-23T05:17:44;147265.66;;;12.09;99.99
5780;BME280;2916;49.798;10.022;2023-04-23T05:20:11;147044.56;;;11.18;99.59
5780;BME280;2916;49.798;10.022;2023-04-23T05:22:41;147156.31;;;11.64;100.00
5780;BME280;2916;49.798;10.022;2023-04-23T05:25:10;147247.00;;;12.01;100.00
5780;BME280;2916;49.798;10.022;2023-04-23T05:27:38;147146.41;;;11.60;100.00
5780;BME280;2916;49.798;10.022;2023-04-23T05:30:08;147218.44;;;11.90;100.00
5780;BME280;2916;49.798;10.022;2023-04-23T05:32:35;147184.88;;;11.76;100.00
5780;BME280;2916;49.798;10.022;2023-04-23T05:35:04;147247.00;;;12.01;100.00
5780;BME280;2916;49.798;10.022;2023-04-23T05:37:32;147088.03;;;11.36;100.00
5780;BME280;2916;49.798;10.022;2023-04-23T05:40:00;147143.88;;;11.59;100.00
5780;BME280;2916;49.798;10.022;2023-04-23T05:42:29;147245.78;;;12.01;100.00
5780;BME280;2916;49.798;10.022;2023-04-23T05:44:56;147204.81;;;11.84;100.00
5780;BME280;2916;49.798;10.022;2023-04-23T05:47:24;147152.56;;;11.63;100.00
5780;BME280;2916;49.798;10.022;2023-04-23T05:49:51;147161.25;;;11.66;100.00
5780;BME280;2916;49.798;10.022;2023-04-23T05:52:18;147186.13;;;11.76;100.00
5780;BME280;2916;49.798;10.022;2023-04-23T05:54:45;147273.13;;;12.12;100.00
5780;BME280;2916;49.798;10.022;2023-04-23T05:57:14;147248.25;;;12.02;100.00
5780;BME280;2916;49.798;10.022;2023-04-23T05:59:41;147300.44;;;12.23;100.00
5780;BME280;2916;49.798;10.022;2023-04-23T06:02:09;147286.75;;;12.18;100.00
5780;BME280;2916;49.798;10.022;2023-04-23T06:04:37;147293.00;;;12.20;100.00
5780;BME280;2916;49.798;10.022;2023-04-23T06:07:05;147242.06;;;11.99;100.00
5780;BME280;2916;49.798;10.022;2023-04-23T06:09:32;147279.34;;;12.15;100.00
5780;BME280;2916;49.798;10.022;2023-04-23T06:12:01;147199.75;;;11.82;100.00
5780;BME280;2916;49.798;10.022;2023-04-23T06:14:30;147121.53;;;11.50;100.00
5780;BME280;2916;49.798;10.022;2023-04-23T06:16:57;147201.00;;;11.83;100.00
5780;BME280;2916;49.798;10.022;2023-04-23T06:19:24;147255.72;;;12.05;100.00
5780;BME280;2916;49.798;10.022;2023-04-23T06:21:53;147311.63;;;12.28;100.00
5780;BME280;2916;49.798;10.022;2023-04-23T06:24:20;147317.84;;;12.31;98.64
5780;BME280;2916;49.798;10.022;2023-04-23T06:26:47;147365.06;;;12.50;98.89
5780;BME280;2916;49.798;10.022;2023-04-23T06:29:14;147375.00;;;12.54;98.29
5780;BME280;2916;49.798;10.022;2023-04-23T06:31:43;147419.72;;;12.72;97.88
5780;BME280;2916;49.798;10.022;2023-04-23T06:34:10;147684.59;;;13.81;95.74
5780;BME280;2916;49.798;10.022;2023-04-23T06:36:37;147544.06;;;13.23;91.65
5780;BME280;2916;49.798;10.022;2023-04-23T06:39:04;147526.59;;;13.16;92.50
5780;BME280;2916;49.798;10.022;2023-04-23T06:41:32;147583.84;;;13.40;92.41
5780;BME280;2916;49.798;10.022;2023-04-23T06:43:59;147621.16;;;13.55;91.83
5780;BME280;2916;49.798;10.022;2023-04-23T06:46:26;147596.31;;;13.45;90.36
5780;BME280;2916;49.798;10.022;2023-04-23T06:48:55;147605.03;;;13.48;87.17
5780;BME280;2916;49.798;10.022;2023-04-23T06:51:25;147660.94;;;13.71;85.91
5780;BME280;2916;49.798;10.022;2023-04-23T06:53:52;147663.47;;;13.72;85.24
5780;BME280;2916;49.798;10.022;2023-04-23T06:56:20;147760.47;;;14.12;85.47
5780;BME280;2916;49.798;10.022;2023-04-23T06:58:47;147777.91;;;14.19;85.46
5780;BME280;2916;49.798;10.022;2023-04-23T07:01:15;147760.47;;;14.12;83.67
5780;BME280;2916;49.798;10.022;2023-04-23T07:03:42;147827.66;;;14.40;85.43
5780;BME280;2916;49.798;10.022;2023-04-23T07:06:15;147744.28;;;14.06;82.03
5780;BME280;2916;49.798;10.022;2023-04-23T07:08:42;147730.63;;;14.00;82.47
5780;BME280;2916;49.798;10.022;2023-04-23T07:11:10;147735.56;;;14.02;83.46
5780;BME280;2916;49.798;10.022;2023-04-23T07:13:38;147818.94;;;14.36;82.60
5780;BME280;2916;49.798;10.022;2023-04-23T07:16:05;147794.03;;;14.26;82.62
5780;BME280;2916;49.798;10.022;2023-04-23T07:18:33;147847.56;;;14.48;80.64
5780;BME280;2916;49.798;10.022;2023-04-23T07:21:00;147816.47;;;14.35;79.55
5780;BME280;2916;49.798;10.022;2023-04-23T07:23:29;147852.56;;;14.50;79.49
5780;BME280;2916;49.798;10.022;2023-04-23T07:25:56;147792.78;;;14.25;80.39
5780;BME280;2916;49.798;10.022;2023-04-23T07:28:23;147741.81;;;14.05;80.59
5780;BME280;2916;49.798;10.022;2023-04-23T07:30:51;147772.91;;;14.17;78.10
5780;BME280;2916;49.798;10.022;2023-04-23T07:33:18;147840.09;;;14.45;78.05
5780;BME280;2916;49.798;10.022;2023-04-23T07:35:46;148023.06;;;15.20;76.59
5780;BME280;2916;49.798;10.022;2023-04-23T07:38:13;148113.97;;;15.57;73.58
5780;BME280;2916;49.798;10.022;2023-04-23T07:40:42;148136.44;;;15.66;71.93
5780;BME280;2916;49.798;10.022;2023-04-23T07:43:09;148028.06;;;15.22;72.82
5780;BME280;2916;49.798;10.022;2023-04-23T07:45:37;148217.41;;;16.00;72.25
5780;BME280;2916;49.798;10.022;2023-04-23T07:48:04;148318.28;;;16.41;69.17
5780;BME280;2916;49.798;10.022;2023-04-23T07:50:31;148305.84;;;16.36;69.96
5780;BME280;2916;49.798;10.022;2023-04-23T07:52:58;148430.47;;;16.87;69.79
5780;BME280;2916;49.798;10.022;2023-04-23T07:55:25;148244.75;;;16.11;67.63
5780;BME280;2916;49.798;10.022;2023-04-23T07:57:54;148457.91;;;16.98;68.18
5780;BME280;2916;49.798;10.022;2023-04-23T08:00:21;148538.91;;;17.31;65.76
5780;BME280;2916;49.798;10.022;2023-04-23T08:02:48;148525.22;;;17.26;64.38
5780;BME280;2916;49.798;10.022;2023-04-23T08:05:16;148348.16;;;16.53;67.45
5780;BME280;2916;49.798;10.022;2023-04-23T08:07:43;148241.03;;;16.09;68.99
5780;BME280;2916;49.798;10.022;2023-04-23T08:10:10;148213.63;;;15.98;70.73
5780;BME280;2916;49.798;10.022;2023-04-23T08:12:37;148165.06;;;15.78;69.93
5780;BME280;2916;49.798;10.022;2023-04-23T08:15:07;148148.88;;;15.71;71.92
5780;BME280;2916;49.798;10.022;2023-04-23T08:17:35;148163.81;;;15.78;70.56
5780;BME280;2916;49.798;10.022;2023-04-23T08:20:03;148350.66;;;16.54;68.43
5780;BME280;2916;49.798;10.022;2023-04-23T08:22:31;148423.00;;;16.84;66.96
5780;BME280;2916;49.798;10.022;2023-04-23T08:24:58;148253.47;;;16.14;67.49
5780;BME280;2916;49.798;10.022;2023-04-23T08:27:25;148335.72;;;16.48;66.50
5780;BME280;2916;49.798;10.022;2023-04-23T08:29:52;148373.09;;;16.63;66.89
5780;BME280;2916;49.798;10.022;2023-04-23T08:32:21;148408.00;;;16.78;67.15
5780;BME280;2916;49.798;10.022;2023-04-23T08:34:48;148434.19;;;16.88;65.67
5780;BME280;2916;49.798;10.022;2023-04-23T08:37:15;148689.81;;;17.93;64.38
5780;BME280;2916;49.798;10.022;2023-04-23T08:39:43;148436.69;;;16.89;64.95
5780;BME280;2916;49.798;10.022;2023-04-23T08:42:23;148479.06;;;17.07;65.06
5780;BME280;2916;49.798;10.022;2023-04-23T08:44:51;148674.84;;;17.87;65.48
5780;BME280;2916;49.798;10.022;2023-04-23T08:47:23;148430.47;;;16.87;62.80
5780;BME280;2916;49.798;10.022;2023-04-23T08:49:54;148629.94;;;17.69;65.16
5780;BME280;2916;49.798;10.022;2023-04-23T08:52:25;148637.38;;;17.72;60.98
5780;BME280;2916;49.798;10.022;2023-04-23T08:54:53;149034.22;;;19.34;59.68
5780;BME280;2916;49.798;10.022;2023-04-23T08:57:25;149196.56;;;20.00;57.04
5780;BME280;2916;49.798;10.022;2023-04-23T08:59:52;149302.69;;;20.44;56.80
5780;BME280;2916;49.798;10.022;2023-04-23T09:02:23;148840.72;;;18.55;56.60
5780;BME280;2916;49.798;10.022;2023-04-23T09:04:51;149060.38;;;19.45;58.12
5780;BME280;2916;49.798;10.022;2023-04-23T09:07:19;148845.72;;;18.57;57.78
5780;BME280;2916;49.798;10.022;2023-04-23T09:09:46;149326.44;;;20.53;58.82
5780;BME280;2916;49.798;10.022;2023-04-23T09:12:14;149159.09;;;19.85;53.55
5780;BME280;2916;49.798;10.022;2023-04-23T09:14:41;148981.75;;;19.12;55.80
5780;BME280;2916;49.798;10.022;2023-04-23T09:17:08;148894.41;;;18.77;57.48
5780;BME280;2916;49.798;10.022;2023-04-23T09:19:39;148883.19;;;18.72;59.10
5780;BME280;2916;49.798;10.022;2023-04-23T09:22:06;148931.84;;;18.92;59.41
5780;BME280;2916;49.798;10.022;2023-04-23T09:24:34;148886.94;;;18.74;57.57
5780;BME280;2916;49.798;10.022;2023-04-23T09:27:02;148779.59;;;18.30;57.80
5780;BME280;2916;49.798;10.022;2023-04-23T09:29:29;148662.38;;;17.82;58.31
5780;BME280;2916;49.798;10.022;2023-04-23T09:32:07;148953.06;;;19.01;59.85
5780;BME280;2916;49.798;10.022;2023-04-23T09:34:36;148854.47;;;18.60;57.94
5780;BME280;2916;49.798;10.022;2023-04-23T09:37:05;148799.56;;;18.38;57.65
5780;BME280;2916;49.798;10.022;2023-04-23T09:39:35;148707.28;;;18.00;59.22
5780;BME280;2916;49.798;10.022;2023-04-23T09:42:04;148910.66;;;18.83;58.18
5780;BME280;2916;49.798;10.022;2023-04-23T09:44:34;148747.19;;;18.17;58.17
5780;BME280;2916;49.798;10.022;2023-04-23T09:47:08;148938.13;;;18.95;58.30
5780;BME280;2916;49.798;10.022;2023-04-23T09:49:53;148849.44;;;18.58;57.49
5780;BME280;2916;49.798;10.022;2023-04-23T09:52:20;148950.59;;;19.00;57.37
5780;BME280;2916;49.798;10.022;2023-04-23T09:54:50;149029.19;;;19.32;57.01
5780;BME280;2916;49.798;10.022;2023-04-23T09:57:17;149195.25;;;20.00;55.38
5780;BME280;2916;49.798;10.022;2023-04-23T09:59:44;149112.88;;;19.66;58.14
5780;BME280;2916;49.798;10.022;2023-04-23T10:02:12;149054.19;;;19.42;55.98
5780;BME280;2916;49.798;10.022;2023-04-23T10:04:40;148858.19;;;18.62;56.44
5780;BME280;2916;49.798;10.022;2023-04-23T10:07:08;149101.66;;;19.61;55.33
5780;BME280;2916;49.798;10.022;2023-04-23T10:09:39;149164.06;;;19.87;53.76
5780;BME280;2916;49.798;10.022;2023-04-23T10:12:08;149101.66;;;19.61;54.95
5780;BME280;2916;49.798;10.022;2023-04-23T10:14:38;149045.44;;;19.38;54.33
5780;BME280;2916;49.798;10.022;2023-04-23T10:17:06;149031.69;;;19.33;54.84
5780;BME280;2916;49.798;10.022;2023-04-23T10:19:38;149152.81;;;19.82;53.06
5780;BME280;2916;49.798;10.022;2023-04-23T10:22:09;149106.63;;;19.64;52.76
5780;BME280;2916;49.798;10.022;2023-04-23T10:24:39;149151.59;;;19.82;51.13
5780;BME280;2916;49.798;10.022;2023-04-23T10:27:12;149216.53;;;20.08;50.58
5780;BME280;2916;49.798;10.022;2023-04-23T10:29:41;149096.59;;;19.59;51.13
5780;BME280;2916;49.798;10.022;2023-04-23T10:32:10;149081.63;;;19.53;52.86
5780;BME280;2916;49.798;10.022;2023-04-23T10:34:39;149111.66;;;19.66;51.67
5780;BME280;2916;49.798;10.022;2023-04-23T10:37:10;149109.13;;;19.65;52.97
5780;BME280;2916;49.798;10.022;2023-04-23T10:39:38;149303.94;;;20.44;52.32
5780;BME280;2916;49.798;10.022;2023-04-23T10:42:09;149202.75;;;20.03;51.85
5780;BME280;2916;49.798;10.022;2023-04-23T10:44:41;149268.94;;;20.30;49.42
5780;BME280;2916;49.798;10.022;2023-04-23T10:47:13;149303.94;;;20.44;48.90
5780;BME280;2916;49.798;10.022;2023-04-23T10:49:41;149253.94;;;20.24;49.38
5780;BME280;2916;49.798;10.022;2023-04-23T10:52:14;149159.09;;;19.85;50.07
5780;BME280;2916;49.798;10.022;2023-04-23T10:54:46;149308.91;;;20.46;50.19
5780;BME280;2916;49.798;10.022;2023-04-23T10:57:14;149226.50;;;20.13;49.22
5780;BME280;2916;49.798;10.022;2023-04-23T10:59:51;149206.53;;;20.04;47.63
5780;BME280;2916;49.798;10.022;2023-04-23T11:02:20;149174.03;;;19.91;48.83
5780;BME280;2916;49.798;10.022;2023-04-23T11:04:54;149243.97;;;20.20;48.70
5780;BME280;2916;49.798;10.022;2023-04-23T11:07:30;149335.19;;;20.57;48.83
5780;BME280;2916;49.798;10.022;2023-04-23T11:09:59;149322.72;;;20.52;50.26
5780;BME280;2916;49.798;10.022;2023-04-23T11:12:31;149347.69;;;20.62;49.16
5780;BME280;2916;49.798;10.022;2023-04-23T11:15:09;149316.47;;;20.49;50.93
5780;BME280;2916;49.798;10.022;2023-04-23T11:17:58;149313.94;;;20.48;48.54
5780;BME280;2916;49.798;10.022;2023-04-23T11:20:25;149461.38;;;21.08;48.40
5780;BME280;2916;49.798;10.022;2023-04-23T11:22:54;149541.38;;;21.41;46.69
5780;BME280;2916;49.798;10.022;2023-04-23T11:25:23;149436.34;;;20.98;48.44
5780;BME280;2916;49.798;10.022;2023-04-23T11:27:53;149373.91;;;20.73;49.33
5780;BME280;2916;49.798;10.022;2023-04-23T11:30:22;149305.19;;;20.45;49.25
5780;BME280;2916;49.798;10.022;2023-04-23T11:32:52;149306.44;;;20.45;50.46
5780;BME280;2916;49.798;10.022;2023-04-23T11:35:22;149432.63;;;20.97;49.91
5780;BME280;2916;49.798;10.022;2023-04-23T11:37:55;149467.63;;;21.11;46.87
5780;BME280;2916;49.798;10.022;2023-04-23T11:40:22;149363.94;;;20.69;45.09
5780;BME280;2916;49.798;10.022;2023-04-23T11:42:52;149308.91;;;20.46;46.26
5780;BME280;2916;49.798;10.022;2023-04-23T11:45:20;149348.91;;;20.63;45.50
5780;BME280;2916;49.798;10.022;2023-04-23T11:47:50;149538.88;;;21.40;46.14
5780;BME280;2916;49.798;10.022;2023-04-23T11:50:22;149533.91;;;21.38;46.89
5780;BME280;2916;49.798;10.022;2023-04-23T11:52:50;149391.41;;;20.80;46.56
5780;BME280;2916;49.798;10.022;2023-04-23T11:55:19;149408.91;;;20.87;44.60
5780;BME280;2916;49.798;10.022;2023-04-23T11:57:49;149217.78;;;20.09;45.83
5780;BME280;2916;49.798;10.022;2023-04-23T12:00:19;149199.03;;;20.01;48.41
5780;BME280;2916;49.798;10.022;2023-04-23T12:02:52;149192.78;;;19.99;48.75
5780;BME280;2916;49.798;10.022;2023-04-23T12:05:21;149219.00;;;20.09;48.03
5780;BME280;2916;49.798;10.022;2023-04-23T12:07:50;149267.72;;;20.29;46.75
5780;BME280;2916;49.798;10.022;2023-04-23T12:10:20;149214.00;;;20.07;47.77
5780;BME280;2916;49.798;10.022;2023-04-23T12:12:51;149112.88;;;19.66;46.36
5780;BME280;2916;49.798;10.022;2023-04-23T12:15:19;149211.50;;;20.06;46.95
5780;BME280;2916;49.798;10.022;2023-04-23T12:17:50;149189.03;;;19.97;47.89
5780;BME280;2916;49.798;10.022;2023-04-23T12:20:21;149151.59;;;19.82;47.83
5780;BME280;2916;49.798;10.022;2023-04-23T12:22:48;149142.84;;;19.78;46.67
5780;BME280;2916;49.798;10.022;2023-04-23T12:25:15;149251.47;;;20.23;46.16
5780;BME280;2916;49.798;10.022;2023-04-23T12:27:44;149231.47;;;20.15;46.37
5780;BME280;2916;49.798;10.022;2023-04-23T12:30:12;149267.72;;;20.29;46.42
5780;BME280;2916;49.798;10.022;2023-04-23T12:32:40;149214.00;;;20.07;46.29
5780;BME280;2916;49.798;10.022;2023-04-23T12:35:08;149358.91;;;20.67;45.78
5780;BME280;2916;49.798;10.022;2023-04-23T12:37:36;149109.13;;;19.65;45.14
5780;BME280;2916;49.798;10.022;2023-04-23T12:40:05;149201.53;;;20.02;47.01
5780;BME280;2916;49.798;10.022;2023-04-23T12:42:33;149077.88;;;19.52;46.05
5780;BME280;2916;49.798;10.022;2023-04-23T12:45:10;149238.97;;;20.18;46.56
5780;BME280;2916;49.798;10.022;2023-04-23T12:47:37;149120.38;;;19.69;45.21
5780;BME280;2916;49.798;10.022;2023-04-23T12:50:05;149216.53;;;20.08;46.86
5780;BME280;2916;49.798;10.022;2023-04-23T12:52:33;149206.53;;;20.04;46.54
5780;BME280;2916;49.798;10.022;2023-04-23T12:55:00;149146.56;;;19.80;46.43
5780;BME280;2916;49.798;10.022;2023-04-23T12:57:29;149156.56;;;19.84;45.66
5780;BME280;2916;49.798;10.022;2023-04-23T12:59:56;149302.69;;;20.44;46.61
5780;BME280;2916;49.798;10.022;2023-04-23T13:02:25;149285.19;;;20.37;47.08
5780;BME280;2916;49.798;10.022;2023-04-23T13:04:52;149197.78;;;20.01;46.92